Stations météo

réclame
Mon MeteoGroup
Katesbridge, Grande-Bretagne (99014): Température de l'air & dewpoint: 23.03.2020 03:00:00 - 29.03.2020 03:00:00 (BST)Katesbridge, Grande-Bretagne (99014): Vitesse du vent: 23.03.2020 03:00:00 - 29.03.2020 03:00:00 (BST)Katesbridge, Grande-Bretagne (99014): Direction du vent: 23.03.2020 03:00:00 - 29.03.2020 03:00:00 (BST)Katesbridge, Grande-Bretagne (99014): Ensoleillement: 23.03.2020 03:00:00 - 29.03.2020 03:00:00 (BST)Katesbridge, Grande-Bretagne (99014): Quantités de précipitations: 23.03.2020 03:00:00 - 29.03.2020 03:00:00 (BST)
Date & Time tt [°C] td [°C] ff [km/h] ff [knt] dd sd [min] rr [mm]
29.03.2020 03:00:00 - - - - - - -
29.03.2020 02:00:00 2,1 -2,6 21 11 ENE 0 0,0
29.03.2020 01:00:00 2,6 -1,6 18 10 ENE - 0,0
29.03.2020 00:00:00 3,5 -2,6 18 10 ENE 0 0,0
28.03.2020 23:00:00 4,5 -2,7 21 11 ENE 0 0,0
28.03.2020 22:00:00 5,4 -2,0 21 11 E 0 0,0
28.03.2020 21:00:00 6,0 -0,7 18 10 E 0 0,0
28.03.2020 20:00:00 6,5 -0,4 18 10 ENE 0 0,0
28.03.2020 19:00:00 7,0 -0,6 22 12 NE 0 0,0
28.03.2020 18:00:00 8,0 -0,1 26 14 NE 30 0,0
28.03.2020 17:00:00 9,2 -0,2 22 12 NE 30 0,0
28.03.2020 16:00:00 8,7 0,5 26 14 NE 6 0,0
28.03.2020 15:00:00 8,9 2,1 22 12 NE 30 0,0
28.03.2020 14:00:00 9,7 2,2 24 13 NE 36 0,0
28.03.2020 13:00:00 9,0 2,1 24 13 NE 36 0,0
28.03.2020 12:00:00 8,4 2,1 26 14 ENE 36 0,0
28.03.2020 11:00:00 9,0 2,5 28 15 NE 60 0,0
28.03.2020 10:00:00 7,8 3,0 21 11 NE 60 0,0
28.03.2020 09:00:00 5,5 2,8 13 7 NE 30 0,0
28.03.2020 08:00:00 4,9 2,2 5 3 NNE 0 0,0
28.03.2020 07:00:00 5,5 3,0 15 8 NE 0 0,0
28.03.2020 06:00:00 6,2 3,7 13 7 NE 0 0,0
28.03.2020 05:00:00 6,8 3,2 9 5 NNE 0 0,0
28.03.2020 04:00:00 7,1 2,9 15 8 ENE 0 0,0
28.03.2020 03:00:00 7,0 4,8 8 4 ENE 0 0,0
28.03.2020 02:00:00 7,1 4,3 8 4 ENE 0 0,0
28.03.2020 01:00:00 7,6 5,4 5 3 ESE - 0,0
28.03.2020 00:00:00 7,3 5,5 13 7 NE 0 0,0
27.03.2020 23:00:00 7,1 5,6 13 7 NE 0 0,0
27.03.2020 22:00:00 7,1 5,5 16 9 NNE 0 0,0
27.03.2020 21:00:00 7,5 5,6 16 9 NNE 0 0,0
27.03.2020 20:00:00 8,4 6,0 15 8 NE 0 0,0
27.03.2020 19:00:00 9,1 6,3 13 7 NE 0 0,0
27.03.2020 18:00:00 9,9 6,3 13 7 ENE 0 0,0
27.03.2020 17:00:00 10,9 6,7 15 8 ENE 0 0,0
27.03.2020 16:00:00 11,6 5,9 15 8 NE 42 0,0
27.03.2020 15:00:00 11,5 7,1 13 7 N 42 0,0
27.03.2020 14:00:00 10,8 8,2 8 4 NNW 6 0,0
27.03.2020 13:00:00 9,6 6,6 5 3 NNE 0 0,0
27.03.2020 12:00:00 8,8 6,4 9 5 NNE 0 0,0
27.03.2020 11:00:00 7,9 6,3 13 7 NNE 6 0,0
27.03.2020 10:00:00 7,4 6,7 15 8 NNE 0 0,0
27.03.2020 09:00:00 5,7 5,7 4 2 W 0 0,0
27.03.2020 08:00:00 4,6 4,6 4 2 NW 0 0,0
27.03.2020 07:00:00 4,4 4,4 8 4 N 0 0,0
27.03.2020 06:00:00 1,2 1,2 2 1 NW 0 0,0
27.03.2020 05:00:00 1,0 1,0 4 2 WNW 0 0,0
27.03.2020 04:00:00 -0,7 -1,0 2 1 NW 0 0,0
27.03.2020 03:00:00 0,4 0,2 2 1 SSW 0 0,0
27.03.2020 02:00:00 1,8 1,6 5 3 N 0 0,0
27.03.2020 01:00:00 1,4 0,6 2 1 NNW - 0,0
27.03.2020 00:00:00 1,9 0,5 2 1 SW 0 0,0
26.03.2020 23:00:00 4,1 2,6 5 3 N 0 0,0
26.03.2020 22:00:00 5,2 3,8 4 2 W 0 0,0
26.03.2020 21:00:00 6,0 4,0 4 2 NW 0 0,0
26.03.2020 20:00:00 8,5 4,8 4 2 NW 6 0,0
26.03.2020 19:00:00 11,5 6,1 8 4 NNE 60 0,0
26.03.2020 18:00:00 12,9 7,4 5 3 N 60 0,0
26.03.2020 17:00:00 12,9 7,5 9 5 N 54 0,0
26.03.2020 16:00:00 13,3 7,6 9 5 N 48 0,0
26.03.2020 15:00:00 13,3 7,8 11 6 N 54 0,0
26.03.2020 14:00:00 13,4 7,2 9 5 NE 54 0,0
26.03.2020 13:00:00 11,9 6,7 9 5 NNE 54 0,0
26.03.2020 12:00:00 10,8 6,1 9 5 NNE 54 0,0
26.03.2020 11:00:00 10,0 6,0 13 7 NNE 60 0,0
26.03.2020 10:00:00 8,9 5,8 11 6 NE 48 0,0
26.03.2020 09:00:00 6,9 6,3 2 1 N 18 0,0
26.03.2020 08:00:00 4,7 4,1 4 2 NNE 0 0,0
26.03.2020 07:00:00 5,8 5,3 5 3 E 0 0,0
26.03.2020 06:00:00 7,0 6,9 4 2 N 0 0,0
26.03.2020 05:00:00 7,3 7,3 4 2 E 0 0,0
26.03.2020 04:00:00 7,3 7,3 2 1 SE 0 0,0
26.03.2020 03:00:00 7,3 7,3 8 4 SSE 0 0,0
26.03.2020 02:00:00 7,2 7,2 4 2 N 0 0,0
26.03.2020 01:00:00 7,1 7,1 8 4 NNW - 0,0
26.03.2020 00:00:00 7,6 7,6 4 2 NNW 0 0,0
25.03.2020 23:00:00 7,1 6,9 4 2 NNW 0 0,0
25.03.2020 22:00:00 7,2 6,1 5 3 SW 0 0,0
25.03.2020 21:00:00 7,8 5,1 5 3 ESE 0 0,0
25.03.2020 20:00:00 11,2 7,8 4 2 NE 0 0,0
25.03.2020 19:00:00 12,6 8,6 4 2 NNE 0 0,0
25.03.2020 18:00:00 13,4 8,3 8 4 NNE 18 0,0
25.03.2020 17:00:00 14,7 6,9 11 6 SSW 24 0,0
25.03.2020 16:00:00 14,3 7,0 13 7 SSW 36 0,0
25.03.2020 15:00:00 14,3 7,2 16 9 SSW 24 0,0
25.03.2020 14:00:00 13,2 7,5 13 7 W 12 0,0
25.03.2020 13:00:00 12,3 7,2 18 10 SW 12 0,0
25.03.2020 12:00:00 12,1 7,3 15 8 SW 30 0,0
25.03.2020 11:00:00 12,2 7,4 13 7 WSW 12 0,0
25.03.2020 10:00:00 9,6 6,7 13 7 SW 0 0,0
25.03.2020 09:00:00 8,9 6,2 13 7 WSW 0 0,0
25.03.2020 08:00:00 8,2 5,5 8 4 SW 0 0,0
25.03.2020 07:00:00 8,2 5,3 16 9 SW 0 0,0
25.03.2020 06:00:00 8,1 5,2 11 6 S 0 0,0
25.03.2020 05:00:00 8,6 5,1 11 6 S 0 0,0
25.03.2020 04:00:00 8,9 5,1 9 5 SSW 0 0,0
25.03.2020 03:00:00 8,8 5,0 16 9 SSW 0 0,0
25.03.2020 02:00:00 8,7 5,2 18 10 SSW 0 0,0
25.03.2020 01:00:00 8,7 5,2 16 9 SSW - 0,0
25.03.2020 00:00:00 8,7 5,1 13 7 S 0 0,0
24.03.2020 23:00:00 8,9 5,1 11 6 S 0 0,0
24.03.2020 22:00:00 9,3 5,2 18 10 SSW 0 0,0
24.03.2020 21:00:00 9,9 5,5 26 14 SSW 0 0,0
24.03.2020 20:00:00 10,3 5,5 24 13 SSW 0 0,0
24.03.2020 19:00:00 10,8 5,8 24 13 SSW 6 0,0
24.03.2020 18:00:00 11,6 6,3 24 13 S 42 0,0
24.03.2020 17:00:00 12,4 6,5 24 13 SSW 60 0,0
24.03.2020 16:00:00 12,8 6,2 24 13 SSW 60 0,0
24.03.2020 15:00:00 12,6 6,7 24 13 S 60 0,0
24.03.2020 14:00:00 12,6 6,8 24 13 SSW 60 0,0
24.03.2020 13:00:00 11,7 6,6 21 11 S 42 0,0
24.03.2020 12:00:00 9,5 5,3 26 14 SSW 0 0,0
24.03.2020 11:00:00 8,9 5,2 21 11 SSW 0 0,0
24.03.2020 10:00:00 8,2 5,3 16 9 S 0 0,0
24.03.2020 09:00:00 7,8 5,0 24 13 SSW 0 0,0
24.03.2020 08:00:00 7,4 4,0 13 7 S 0 0,0
24.03.2020 07:00:00 7,7 3,7 15 8 S 0 0,0
24.03.2020 06:00:00 7,5 3,4 13 7 SSE 0 0,0
24.03.2020 05:00:00 7,8 2,4 8 4 SSE 0 0,0
24.03.2020 04:00:00 8,3 2,7 11 6 S 0 0,0
24.03.2020 03:00:00 8,2 2,6 13 7 SSW 0 0,0
24.03.2020 02:00:00 7,9 3,0 13 7 S 0 0,0
24.03.2020 01:00:00 8,5 2,8 16 9 SSW - 0,0
24.03.2020 00:00:00 8,7 3,4 11 6 SSW 0 0,0
23.03.2020 23:00:00 8,9 4,4 9 5 S 0 0,0
23.03.2020 22:00:00 9,5 4,8 15 8 SSW 0 0,0
23.03.2020 21:00:00 9,0 5,3 11 6 SSW 0 0,0
23.03.2020 20:00:00 8,0 5,2 13 7 SSE 0 0,0
23.03.2020 19:00:00 7,9 5,3 15 8 S 0 0,0
23.03.2020 18:00:00 8,1 5,0 15 8 S 0 0,0
23.03.2020 17:00:00 8,3 4,8 16 9 SSE 0 0,0
23.03.2020 16:00:00 9,1 4,9 16 9 S 0 0,0
23.03.2020 15:00:00 10,0 4,5 21 11 S 0 0,0
23.03.2020 14:00:00 10,1 3,6 18 10 SSW 0 0,0
23.03.2020 13:00:00 10,1 3,3 24 13 SSW 24 0,0
23.03.2020 12:00:00 9,1 3,3 18 10 S 0 0,0
23.03.2020 11:00:00 8,3 3,6 21 11 S 24 0,0
23.03.2020 10:00:00 7,5 3,3 16 9 S 0 0,0
23.03.2020 09:00:00 6,4 3,5 11 6 S 0 0,0
23.03.2020 08:00:00 4,9 2,6 9 5 SE 0 0,0
23.03.2020 07:00:00 4,2 2,2 8 4 SE 0 0,0
23.03.2020 06:00:00 5,2 2,6 8 4 SSE 0 0,0
23.03.2020 05:00:00 5,8 2,9 11 6 S 0 0,0
23.03.2020 04:00:00 6,0 2,0 16 9 S 0 0,0
23.03.2020 03:00:00 - - - - - - -

tt = Température de l'air
td = dewpoint
ff = Vitesse du vent
dd = Direction du vent
sd = Ensoleillement
rr = Quantités de précipitations

stations d'obs. à proximité